createdAt,value
2018-08-31T00:00:18.639Z,101708.78
2018-08-31T00:00:40.440Z,101702.09
2018-08-31T00:01:02.213Z,101706.71
2018-08-31T00:01:24.002Z,101700.75
2018-08-31T00:01:45.759Z,101709.90
2018-08-31T00:02:07.541Z,101709.52
2018-08-31T00:02:29.280Z,101709.52
2018-08-31T00:02:51.061Z,101710.25
2018-08-31T00:03:12.833Z,101710.82
2018-08-31T00:03:34.597Z,101713.62
2018-08-31T00:03:56.362Z,101719.61
2018-08-31T00:04:18.138Z,101716.62
2018-08-31T00:04:41.290Z,101710.44
2018-08-31T00:05:03.042Z,101709.52
2018-08-31T00:05:24.792Z,101717.13
2018-08-31T00:05:48.816Z,101706.91
2018-08-31T00:06:10.564Z,101714.36
2018-08-31T00:06:32.317Z,101714.73
2018-08-31T00:06:54.090Z,101719.20
2018-08-31T00:07:15.908Z,101714.67
2018-08-31T00:07:37.655Z,101713.37
2018-08-31T00:07:59.417Z,101720.28
2018-08-31T00:08:21.207Z,101716.74
2018-08-31T00:08:42.965Z,101720.12
2018-08-31T00:09:04.716Z,101716.36
2018-08-31T00:09:26.489Z,101715.05
2018-08-31T00:09:48.231Z,101718.66
2018-08-31T00:10:09.972Z,101719.39
2018-08-31T00:10:33.841Z,101720.34
2018-08-31T00:10:55.597Z,101709.83
2018-08-31T00:11:17.360Z,101714.29
2018-08-31T00:11:39.118Z,101714.13
2018-08-31T00:12:00.875Z,101708.68
2018-08-31T00:12:22.666Z,101716.30
2018-08-31T00:12:44.427Z,101716.84
2018-08-31T00:13:06.551Z,101709.22
2018-08-31T00:13:28.294Z,101709.45
2018-08-31T00:13:50.042Z,101707.76
2018-08-31T00:14:11.799Z,101715.47
2018-08-31T00:14:33.553Z,101713.05
2018-08-31T00:14:55.315Z,101711.75
2018-08-31T00:15:17.083Z,101709.45
2018-08-31T00:15:38.829Z,101712.22
2018-08-31T00:16:00.570Z,101714.83
2018-08-31T00:16:22.303Z,101717.44
2018-08-31T00:16:44.060Z,101707.60
2018-08-31T00:17:05.814Z,101713.91
2018-08-31T00:17:27.631Z,101713.52
2018-08-31T00:17:49.408Z,101714.22
2018-08-31T00:18:11.173Z,101707.15
2018-08-31T00:18:32.931Z,101708.68
2018-08-31T00:18:54.675Z,101713.68
2018-08-31T00:19:16.712Z,101717.44
2018-08-31T00:19:38.475Z,101713.84
2018-08-31T00:20:00.231Z,101717.83
2018-08-31T00:20:21.991Z,101717.51
2018-08-31T00:20:43.743Z,101725.19
2018-08-31T00:21:05.492Z,101723.15
2018-08-31T00:21:27.253Z,101719.61
2018-08-31T00:21:49.020Z,101721.14
2018-08-31T00:22:10.779Z,101723.53
2018-08-31T00:22:32.598Z,101722.20
2018-08-31T00:22:54.362Z,101723.15
2018-08-31T00:23:16.111Z,101720.00
2018-08-31T00:23:37.856Z,101715.92
2018-08-31T00:23:59.612Z,101722.29
2018-08-31T00:24:21.373Z,101723.22
2018-08-31T00:24:43.375Z,101713.24
2018-08-31T00:25:05.120Z,101717.16
2018-08-31T00:25:26.884Z,101713.44
2018-08-31T00:25:48.640Z,101719.20
2018-08-31T00:26:13.908Z,101718.20
2018-08-31T00:26:35.660Z,101716.74
2018-08-31T00:26:57.414Z,101714.90
2018-08-31T00:27:19.241Z,101717.35
2018-08-31T00:27:41.015Z,101719.36
2018-08-31T00:28:02.796Z,101717.89
2018-08-31T00:28:24.546Z,101710.98
2018-08-31T00:28:47.078Z,101712.83
2018-08-31T00:29:10.138Z,101716.74
2018-08-31T00:29:31.892Z,101710.98
2018-08-31T00:29:53.730Z,101713.20
2018-08-31T00:30:15.492Z,101711.67
2018-08-31T00:30:37.251Z,101714.29
2018-08-31T00:30:58.998Z,101712.76
2018-08-31T00:31:20.751Z,101716.84
2018-08-31T00:31:42.498Z,101711.61
2018-08-31T00:32:04.255Z,101714.67
2018-08-31T00:32:26.004Z,101707.44
2018-08-31T00:32:47.786Z,101712.13
2018-08-31T00:33:10.878Z,101714.93
2018-08-31T00:33:32.622Z,101711.20
2018-08-31T00:33:54.906Z,101707.63
2018-08-31T00:34:16.664Z,101711.94
2018-08-31T00:34:39.231Z,101708.47
2018-08-31T00:35:00.991Z,101716.45
2018-08-31T00:35:22.747Z,101706.71
2018-08-31T00:35:44.502Z,101711.39
2018-08-31T00:36:06.254Z,101706.01
2018-08-31T00:36:28.004Z,101714.99
2018-08-31T00:36:50.726Z,101707.47
2018-08-31T00:37:12.479Z,101711.20
2018-08-31T00:37:34.328Z,101709.13
2018-08-31T00:37:56.599Z,101706.93
2018-08-31T00:38:18.356Z,101711.45
2018-08-31T00:38:40.112Z,101715.92
2018-08-31T00:39:01.862Z,101708.08
2018-08-31T00:39:23.632Z,101711.23
2018-08-31T00:39:45.380Z,101720.83
2018-08-31T00:40:07.127Z,101713.98
2018-08-31T00:40:28.881Z,101711.37
2018-08-31T00:40:50.622Z,101711.75
2018-08-31T00:41:12.687Z,101710.76
2018-08-31T00:41:34.462Z,101718.37
2018-08-31T00:41:56.223Z,101713.59
2018-08-31T00:42:17.962Z,101716.36
2018-08-31T00:42:39.734Z,101715.44
2018-08-31T00:43:01.506Z,101713.59
2018-08-31T00:43:23.432Z,101710.38
2018-08-31T00:43:45.190Z,101715.77
2018-08-31T00:44:06.976Z,101717.83
2018-08-31T00:44:28.718Z,101717.98
2018-08-31T00:44:50.475Z,101713.53
2018-08-31T00:45:12.219Z,101718.75
2018-08-31T00:45:35.110Z,101716.14
2018-08-31T00:45:58.024Z,101718.53
2018-08-31T00:46:19.773Z,101718.53
2018-08-31T00:46:41.527Z,101717.61
2018-08-31T00:47:03.283Z,101715.06
2018-08-31T00:47:25.036Z,101717.67
2018-08-31T00:47:46.785Z,101715.98
2018-08-31T00:48:08.963Z,101718.22
2018-08-31T00:48:30.717Z,101714.84
2018-08-31T00:48:52.762Z,101715.92
2018-08-31T00:49:14.502Z,101717.22
2018-08-31T00:49:36.263Z,101721.14
2018-08-31T00:49:58.027Z,101714.77
2018-08-31T00:50:19.782Z,101719.77
2018-08-31T00:50:41.565Z,101710.05
2018-08-31T00:51:03.371Z,101714.36
2018-08-31T00:51:25.134Z,101718.08
2018-08-31T00:51:46.888Z,101713.30
2018-08-31T00:52:08.731Z,101714.45
2018-08-31T00:52:30.477Z,101716.91
2018-08-31T00:52:52.252Z,101712.45
2018-08-31T00:53:14.029Z,101718.59
2018-08-31T00:53:35.785Z,101713.21
2018-08-31T00:53:57.538Z,101715.53
2018-08-31T00:54:19.302Z,101716.45
2018-08-31T00:54:41.054Z,101719.39
2018-08-31T00:55:02.813Z,101716.59
2018-08-31T00:55:24.583Z,101713.20
2018-08-31T00:55:46.351Z,101714.52
2018-08-31T00:56:08.099Z,101720.12
2018-08-31T00:56:29.879Z,101720.34
2018-08-31T00:56:51.632Z,101717.00
2018-08-31T00:57:13.447Z,101712.77
2018-08-31T00:57:35.241Z,101717.67
2018-08-31T00:57:57.000Z,101718.37
2018-08-31T00:58:18.792Z,101718.37
2018-08-31T00:58:40.560Z,101715.44
2018-08-31T00:59:02.308Z,101716.05
2018-08-31T00:59:24.054Z,101716.36
2018-08-31T00:59:45.846Z,101714.45
2018-08-31T01:00:07.608Z,101719.68
2018-08-31T01:00:29.359Z,101713.69
2018-08-31T01:00:51.111Z,101711.84
2018-08-31T01:01:12.876Z,101714.45
2018-08-31T01:01:34.631Z,101711.91
2018-08-31T01:01:56.386Z,101716.59
2018-08-31T01:02:18.144Z,101716.05
2018-08-31T01:02:39.894Z,101713.44
2018-08-31T01:03:01.650Z,101711.37
2018-08-31T01:03:23.441Z,101709.33
2018-08-31T01:03:45.212Z,101717.55
2018-08-31T01:04:06.987Z,101712.31
2018-08-31T01:04:28.748Z,101714.74
2018-08-31T01:04:51.300Z,101713.44
2018-08-31T01:05:13.343Z,101716.20
2018-08-31T01:05:35.095Z,101714.52
2018-08-31T01:05:56.867Z,101709.67
2018-08-31T01:06:18.623Z,101712.83
2018-08-31T01:06:40.375Z,101714.91
2018-08-31T01:07:02.129Z,101711.20
2018-08-31T01:07:23.887Z,101711.52
2018-08-31T01:07:45.810Z,101711.30
2018-08-31T01:08:07.599Z,101714.99
2018-08-31T01:08:29.394Z,101714.61
2018-08-31T01:08:51.159Z,101715.37
2018-08-31T01:09:12.931Z,101715.77
2018-08-31T01:09:34.700Z,101710.22
2018-08-31T01:09:56.446Z,101711.91
2018-08-31T01:10:19.844Z,101713.38
2018-08-31T01:10:41.598Z,101709.83
2018-08-31T01:11:03.373Z,101714.07
2018-08-31T01:11:25.152Z,101709.61
2018-08-31T01:11:46.905Z,101713.53
2018-08-31T01:12:09.089Z,101709.61
2018-08-31T01:12:30.856Z,101712.98
2018-08-31T01:12:53.378Z,101717.83
2018-08-31T01:13:15.136Z,101715.37
2018-08-31T01:13:36.930Z,101714.84
2018-08-31T01:13:58.692Z,101711.52
2018-08-31T01:14:20.444Z,101716.36
2018-08-31T01:14:42.211Z,101711.37
2018-08-31T01:15:03.972Z,101711.37
2018-08-31T01:15:25.763Z,101711.91
2018-08-31T01:15:47.490Z,101716.53
2018-08-31T01:16:09.257Z,101716.91
2018-08-31T01:16:30.994Z,101712.83
2018-08-31T01:16:52.775Z,101714.67
2018-08-31T01:17:14.543Z,101714.20
2018-08-31T01:17:36.310Z,101717.36
2018-08-31T01:17:58.054Z,101708.59
2018-08-31T01:18:19.819Z,101716.75
2018-08-31T01:18:41.616Z,101716.23
2018-08-31T01:19:03.367Z,101717.22
2018-08-31T01:19:25.173Z,101714.45
2018-08-31T01:19:46.915Z,101716.30
2018-08-31T01:20:08.712Z,101720.54
2018-08-31T01:20:30.477Z,101712.55
2018-08-31T01:20:52.218Z,101718.53
2018-08-31T01:21:13.980Z,101721.30
2018-08-31T01:21:35.730Z,101721.30
2018-08-31T01:21:57.500Z,101718.84
2018-08-31T01:22:19.239Z,101718.05
2018-08-31T01:22:40.989Z,101719.52
2018-08-31T01:23:02.752Z,101718.37
2018-08-31T01:23:24.503Z,101718.98
2018-08-31T01:23:46.583Z,101713.59
2018-08-31T01:24:08.336Z,101714.36
2018-08-31T01:24:30.095Z,101705.91
2018-08-31T01:24:51.867Z,101715.22
2018-08-31T01:25:13.613Z,101713.38
2018-08-31T01:25:35.359Z,101716.81
2018-08-31T01:25:57.115Z,101714.74
2018-08-31T01:26:18.859Z,101717.92
2018-08-31T01:26:40.613Z,101712.55
2018-08-31T01:27:02.373Z,101712.31
2018-08-31T01:27:24.125Z,101720.16
2018-08-31T01:27:45.889Z,101709.39
2018-08-31T01:28:07.662Z,101713.08
2018-08-31T01:28:29.405Z,101713.08
2018-08-31T01:28:51.212Z,101717.38
2018-08-31T01:29:12.980Z,101718.91
2018-08-31T01:29:34.732Z,101712.61
2018-08-31T01:29:56.504Z,101715.44
2018-08-31T01:30:18.263Z,101714.45
2018-08-31T01:30:40.010Z,101719.07
2018-08-31T01:31:01.748Z,101721.84
2018-08-31T01:31:23.505Z,101716.81
2018-08-31T01:31:45.247Z,101719.20
2018-08-31T01:32:06.995Z,101718.28
2018-08-31T01:32:28.744Z,101718.82
2018-08-31T01:32:50.581Z,101714.91
2018-08-31T01:33:12.331Z,101714.74
2018-08-31T01:33:34.098Z,101719.05
2018-08-31T01:33:55.869Z,101714.01
2018-08-31T01:34:17.618Z,101722.61
2018-08-31T01:34:39.386Z,101722.98
2018-08-31T01:35:01.136Z,101715.51
2018-08-31T01:35:22.912Z,101719.23
2018-08-31T01:35:44.666Z,101716.46
2018-08-31T01:36:06.422Z,101714.07
2018-08-31T01:36:28.163Z,101720.44
2018-08-31T01:36:49.908Z,101719.52
2018-08-31T01:37:11.701Z,101719.52
2018-08-31T01:37:33.455Z,101719.13
2018-08-31T01:37:55.234Z,101716.36
2018-08-31T01:38:16.984Z,101714.84
2018-08-31T01:38:38.739Z,101717.45
2018-08-31T01:39:00.543Z,101716.36
2018-08-31T01:39:22.299Z,101716.52
2018-08-31T01:39:44.051Z,101721.14
2018-08-31T01:40:05.816Z,101713.75
2018-08-31T01:40:27.570Z,101713.59
2018-08-31T01:40:49.411Z,101715.59
2018-08-31T01:41:11.164Z,101712.22
2018-08-31T01:41:32.911Z,101719.13
2018-08-31T01:41:54.647Z,101714.30
2018-08-31T01:42:16.408Z,101713.38
2018-08-31T01:42:38.169Z,101715.50
2018-08-31T01:42:59.934Z,101714.20
2018-08-31T01:43:21.687Z,101713.69
2018-08-31T01:43:43.451Z,101719.45
2018-08-31T01:44:05.236Z,101711.77
2018-08-31T01:44:27.003Z,101713.30
2018-08-31T01:44:48.759Z,101713.52
2018-08-31T01:45:10.519Z,101715.75
2018-08-31T01:45:32.294Z,101718.52
2018-08-31T01:45:54.038Z,101717.44
2018-08-31T01:46:15.804Z,101712.98
2018-08-31T01:46:37.566Z,101718.97
2018-08-31T01:46:59.311Z,101716.14
2018-08-31T01:47:21.087Z,101715.75
2018-08-31T01:47:42.837Z,101714.45
2018-08-31T01:48:04.582Z,101716.52
2018-08-31T01:48:26.352Z,101713.36
2018-08-31T01:48:48.124Z,101710.91
2018-08-31T01:49:09.932Z,101714.83
2018-08-31T01:49:31.711Z,101708.30
2018-08-31T01:49:53.457Z,101707.76
2018-08-31T01:50:15.258Z,101712.22
2018-08-31T01:50:40.398Z,101716.30
2018-08-31T01:51:07.699Z,101714.83
2018-08-31T01:51:29.464Z,101710.38
2018-08-31T01:51:51.220Z,101710.15
2018-08-31T01:52:12.973Z,101716.67
2018-08-31T01:52:34.770Z,101714.20
2018-08-31T01:52:56.503Z,101711.59
2018-08-31T01:53:18.267Z,101714.20
2018-08-31T01:53:40.014Z,101714.00
2018-08-31T01:54:01.757Z,101714.98
2018-08-31T01:54:23.635Z,101713.91
2018-08-31T01:54:45.391Z,101713.52
2018-08-31T01:55:07.133Z,101711.30
2018-08-31T01:55:31.302Z,101713.52
2018-08-31T01:55:53.057Z,101715.97
2018-08-31T01:56:14.794Z,101715.59
2018-08-31T01:56:36.541Z,101717.28
2018-08-31T01:56:58.304Z,101715.59
2018-08-31T01:57:20.112Z,101715.37
2018-08-31T01:57:41.827Z,101711.45
2018-08-31T01:58:03.590Z,101715.91
2018-08-31T01:58:25.343Z,101713.52
2018-08-31T01:58:47.094Z,101712.16
2018-08-31T01:59:08.845Z,101714.00
2018-08-31T01:59:30.616Z,101713.97
2018-08-31T01:59:52.408Z,101711.14
2018-08-31T02:00:14.169Z,101711.52
2018-08-31T02:00:35.916Z,101710.60
2018-08-31T02:00:57.678Z,101710.28
2018-08-31T02:01:19.430Z,101713.62
2018-08-31T02:01:41.205Z,101713.27
2018-08-31T02:02:02.983Z,101708.23
2018-08-31T02:02:24.810Z,101710.66
2018-08-31T02:02:46.568Z,101705.59
2018-08-31T02:03:08.305Z,101713.05
2018-08-31T02:03:30.086Z,101711.52
2018-08-31T02:03:51.852Z,101711.52
2018-08-31T02:04:13.662Z,101713.05
2018-08-31T02:04:35.410Z,101704.67
2018-08-31T02:04:57.164Z,101711.68
2018-08-31T02:05:18.928Z,101707.92
2018-08-31T02:05:40.774Z,101711.68
2018-08-31T02:06:02.535Z,101711.52
2018-08-31T02:06:24.287Z,101708.37
2018-08-31T02:06:46.035Z,101707.67
2018-08-31T02:07:07.793Z,101708.21
2018-08-31T02:07:29.557Z,101710.76
2018-08-31T02:07:51.302Z,101708.30
2018-08-31T02:08:13.055Z,101708.30
2018-08-31T02:08:35.063Z,101710.31
2018-08-31T02:09:02.090Z,101705.31
2018-08-31T02:09:23.851Z,101710.38
2018-08-31T02:09:45.679Z,101708.75
2018-08-31T02:10:07.434Z,101709.07
2018-08-31T02:10:29.193Z,101709.45
2018-08-31T02:10:51.062Z,101708.69
2018-08-31T02:11:12.827Z,101710.16
2018-08-31T02:11:34.700Z,101712.70
2018-08-31T02:11:56.441Z,101709.55
2018-08-31T02:12:18.211Z,101709.70
2018-08-31T02:12:39.954Z,101713.84
2018-08-31T02:13:01.718Z,101711.23
2018-08-31T02:13:23.483Z,101709.39
2018-08-31T02:13:45.243Z,101709.45
2018-08-31T02:14:06.997Z,101712.28
2018-08-31T02:14:28.747Z,101711.30
2018-08-31T02:14:50.527Z,101710.38
2018-08-31T02:15:12.270Z,101705.16
2018-08-31T02:15:34.024Z,101707.98
2018-08-31T02:15:55.774Z,101704.99
2018-08-31T02:16:17.539Z,101711.91
2018-08-31T02:16:39.304Z,101711.30
2018-08-31T02:17:01.052Z,101707.45
2018-08-31T02:17:22.805Z,101708.53
2018-08-31T02:17:44.565Z,101708.53
2018-08-31T02:18:06.326Z,101707.45
2018-08-31T02:18:28.081Z,101704.45
2018-08-31T02:18:49.842Z,101706.46
2018-08-31T02:19:11.594Z,101707.92
2018-08-31T02:19:33.357Z,101706.23
2018-08-31T02:19:55.143Z,101710.69
2018-08-31T02:20:16.885Z,101702.31
2018-08-31T02:20:38.636Z,101705.69
2018-08-31T02:21:00.395Z,101708.69
2018-08-31T02:21:22.130Z,101707.16
2018-08-31T02:21:43.883Z,101709.39
2018-08-31T02:22:05.727Z,101708.69
2018-08-31T02:22:27.487Z,101713.91
2018-08-31T02:22:49.243Z,101708.53
2018-08-31T02:23:10.997Z,101708.69
2018-08-31T02:23:32.756Z,101701.30
2018-08-31T02:23:54.498Z,101712.83
2018-08-31T02:24:16.272Z,101703.37
2018-08-31T02:24:38.031Z,101710.82
2018-08-31T02:24:59.827Z,101709.52
2018-08-31T02:25:21.575Z,101709.30
2018-08-31T02:25:43.334Z,101712.06
2018-08-31T02:26:05.115Z,101705.91
2018-08-31T02:26:26.902Z,101706.68
2018-08-31T02:26:48.668Z,101708.23
2018-08-31T02:27:10.422Z,101704.16
2018-08-31T02:27:32.179Z,101703.17
2018-08-31T02:27:53.959Z,101701.71
2018-08-31T02:28:15.706Z,101704.45
2018-08-31T02:28:37.463Z,101703.84
2018-08-31T02:28:59.221Z,101703.91
2018-08-31T02:29:20.975Z,101704.84
2018-08-31T02:29:42.736Z,101702.61
2018-08-31T02:30:04.549Z,101699.45
2018-08-31T02:30:26.306Z,101704.86
2018-08-31T02:30:48.073Z,101704.86
2018-08-31T02:31:09.830Z,101697.25
2018-08-31T02:31:31.632Z,101707.16
2018-08-31T02:31:53.379Z,101708.30
2018-08-31T02:32:15.148Z,101705.30
2018-08-31T02:32:36.914Z,101700.84
2018-08-31T02:32:58.658Z,101705.14
2018-08-31T02:33:20.414Z,101697.53
2018-08-31T02:33:42.167Z,101694.60
2018-08-31T02:34:04.195Z,101698.08
2018-08-31T02:34:25.966Z,101698.23
2018-08-31T02:34:47.726Z,101701.55
2018-08-31T02:35:09.524Z,101698.02
2018-08-31T02:35:31.296Z,101697.09
2018-08-31T02:35:53.046Z,101699.16
2018-08-31T02:36:14.812Z,101699.86
2018-08-31T02:36:36.575Z,101699.25
2018-08-31T02:36:58.349Z,101695.53
2018-08-31T02:37:20.097Z,101702.09
2018-08-31T02:37:41.883Z,101699.55
2018-08-31T02:38:03.659Z,101699.38
2018-08-31T02:38:25.419Z,101703.68
2018-08-31T02:38:47.186Z,101692.92
2018-08-31T02:39:08.947Z,101699.32
2018-08-31T02:39:30.719Z,101699.70
2018-08-31T02:39:52.484Z,101707.76
2018-08-31T02:40:14.322Z,101701.77
2018-08-31T02:40:36.102Z,101699.16
2018-08-31T02:40:58.483Z,101700.14
2018-08-31T02:41:20.238Z,101699.61
2018-08-31T02:41:41.984Z,101701.67
2018-08-31T02:42:03.734Z,101702.98
2018-08-31T02:42:25.576Z,101695.72
2018-08-31T02:42:47.314Z,101700.94
2018-08-31T02:43:09.080Z,101701.67
2018-08-31T02:43:30.839Z,101705.59
2018-08-31T02:43:52.936Z,101706.67
2018-08-31T02:44:14.700Z,101703.14
2018-08-31T02:44:36.444Z,101704.61
2018-08-31T02:44:58.207Z,101701.84
2018-08-31T02:45:19.999Z,101704.28
2018-08-31T02:45:41.768Z,101704.45
2018-08-31T02:46:03.536Z,101707.22
2018-08-31T02:46:25.295Z,101705.91
2018-08-31T02:46:47.051Z,101701.39
2018-08-31T02:47:08.809Z,101704.22
2018-08-31T02:47:30.583Z,101704.77
2018-08-31T02:47:52.364Z,101699.38
2018-08-31T02:48:14.124Z,101701.23
2018-08-31T02:48:35.884Z,101699.92
2018-08-31T02:48:57.634Z,101703.46
2018-08-31T02:49:19.370Z,101709.38
2018-08-31T02:49:41.190Z,101703.23
2018-08-31T02:50:02.950Z,101707.31
2018-08-31T02:50:24.792Z,101702.70
2018-08-31T02:50:46.563Z,101703.08
2018-08-31T02:51:08.314Z,101705.53
2018-08-31T02:51:30.085Z,101706.61
2018-08-31T02:51:51.843Z,101701.77
2018-08-31T02:52:13.730Z,101701.07
2018-08-31T02:52:35.483Z,101703.84
2018-08-31T02:52:57.240Z,101702.59
2018-08-31T02:53:18.994Z,101700.69
2018-08-31T02:53:40.919Z,101705.75
2018-08-31T02:54:02.673Z,101709.67
2018-08-31T02:54:24.425Z,101702.82
2018-08-31T02:54:46.187Z,101706.16
2018-08-31T02:55:07.937Z,101706.77
2018-08-31T02:55:29.720Z,101702.47
2018-08-31T02:55:51.481Z,101704.86
2018-08-31T02:56:13.919Z,101705.05
2018-08-31T02:56:35.671Z,101702.22
2018-08-31T02:56:57.439Z,101702.82
2018-08-31T02:57:19.205Z,101702.82
2018-08-31T02:57:40.969Z,101708.97
2018-08-31T02:58:02.718Z,101703.91
2018-08-31T02:58:24.483Z,101703.52
2018-08-31T02:58:46.251Z,101704.06
2018-08-31T02:59:08.001Z,101702.76
2018-08-31T02:59:29.772Z,101703.30
2018-08-31T02:59:51.543Z,101701.07
2018-08-31T03:00:13.291Z,101699.00
2018-08-31T03:00:35.148Z,101704.61
2018-08-31T03:00:56.916Z,101708.14
2018-08-31T03:01:18.692Z,101707.59
2018-08-31T03:01:40.456Z,101704.55
2018-08-31T03:02:02.265Z,101711.20
2018-08-31T03:02:24.028Z,101705.78
2018-08-31T03:02:45.805Z,101709.36
2018-08-31T03:03:07.566Z,101705.84
2018-08-31T03:03:29.350Z,101706.23
2018-08-31T03:03:51.098Z,101703.30
2018-08-31T03:04:12.881Z,101705.37
2018-08-31T03:04:34.659Z,101708.52
2018-08-31T03:04:56.424Z,101710.20
2018-08-31T03:05:18.219Z,101707.70
2018-08-31T03:05:40.025Z,101707.53
2018-08-31T03:06:02.112Z,101709.61
2018-08-31T03:06:23.876Z,101709.45
2018-08-31T03:06:45.663Z,101707.00
2018-08-31T03:07:07.417Z,101712.77
2018-08-31T03:07:29.202Z,101706.45
2018-08-31T03:07:50.986Z,101714.98
2018-08-31T03:08:12.776Z,101706.01
2018-08-31T03:08:34.575Z,101707.31
2018-08-31T03:08:56.332Z,101710.28
2018-08-31T03:09:18.082Z,101707.76
2018-08-31T03:09:39.884Z,101708.52
2018-08-31T03:10:01.644Z,101711.52
2018-08-31T03:10:23.412Z,101707.38
2018-08-31T03:10:45.282Z,101705.69
2018-08-31T03:11:07.035Z,101711.01
2018-08-31T03:11:28.859Z,101710.28
2018-08-31T03:11:50.586Z,101709.52
2018-08-31T03:12:12.422Z,101711.20
2018-08-31T03:12:34.180Z,101704.48
2018-08-31T03:12:55.969Z,101707.31
2018-08-31T03:13:18.036Z,101708.45
2018-08-31T03:13:39.796Z,101706.77
2018-08-31T03:14:01.555Z,101705.30
2018-08-31T03:14:23.316Z,101708.68
2018-08-31T03:14:45.074Z,101707.22
2018-08-31T03:15:06.838Z,101705.53
2018-08-31T03:15:28.614Z,101707.44
2018-08-31T03:15:50.413Z,101709.67
2018-08-31T03:16:12.176Z,101703.52
2018-08-31T03:16:33.954Z,101703.52
2018-08-31T03:16:55.716Z,101706.67
2018-08-31T03:17:17.478Z,101710.59
2018-08-31T03:17:39.259Z,101705.59
2018-08-31T03:18:01.006Z,101703.74
2018-08-31T03:18:22.832Z,101710.59
2018-08-31T03:18:44.606Z,101706.13
2018-08-31T03:19:06.391Z,101705.91
2018-08-31T03:19:28.163Z,101706.45
2018-08-31T03:19:49.916Z,101706.61
2018-08-31T03:20:11.690Z,101701.16
2018-08-31T03:20:33.471Z,101708.45
2018-08-31T03:20:55.302Z,101708.08
2018-08-31T03:21:17.141Z,101706.77
2018-08-31T03:21:38.831Z,101708.63
2018-08-31T03:22:00.586Z,101708.30
2018-08-31T03:22:22.333Z,101703.62
2018-08-31T03:22:44.088Z,101717.06
2018-08-31T03:23:05.848Z,101709.23
2018-08-31T03:23:27.627Z,101709.45
2018-08-31T03:23:49.390Z,101706.61
2018-08-31T03:24:11.143Z,101714.61
2018-08-31T03:24:32.890Z,101717.76
2018-08-31T03:24:54.639Z,101711.07
2018-08-31T03:25:16.408Z,101713.30
2018-08-31T03:25:38.190Z,101713.14
2018-08-31T03:25:59.972Z,101712.59
2018-08-31T03:26:21.739Z,101714.22
2018-08-31T03:26:43.480Z,101715.91
2018-08-31T03:27:05.437Z,101712.16
2018-08-31T03:27:27.196Z,101715.89
2018-08-31T03:27:48.958Z,101713.97
2018-08-31T03:28:10.715Z,101712.52
2018-08-31T03:28:32.479Z,101714.39
2018-08-31T03:28:54.235Z,101711.67
2018-08-31T03:29:15.993Z,101718.75
2018-08-31T03:29:37.753Z,101716.67
2018-08-31T03:29:59.518Z,101715.75
2018-08-31T03:30:21.276Z,101714.06
2018-08-31T03:30:43.030Z,101719.51
2018-08-31T03:31:04.807Z,101718.20
2018-08-31T03:31:26.552Z,101721.04
2018-08-31T03:31:48.295Z,101717.88
2018-08-31T03:32:10.036Z,101717.88
2018-08-31T03:32:31.794Z,101721.83
2018-08-31T03:32:53.546Z,101718.48
2018-08-31T03:33:15.306Z,101715.68
2018-08-31T03:33:37.080Z,101719.98
2018-08-31T03:33:58.841Z,101715.30
2018-08-31T03:34:20.610Z,101714.38
2018-08-31T03:34:42.368Z,101717.72
2018-08-31T03:35:04.342Z,101724.25
2018-08-31T03:35:26.339Z,101718.81
2018-08-31T03:35:48.115Z,101720.27
2018-08-31T03:36:09.910Z,101716.73
2018-08-31T03:36:31.666Z,101714.34
2018-08-31T03:36:53.454Z,101722.19
2018-08-31T03:37:15.205Z,101718.48
2018-08-31T03:37:36.970Z,101724.82
2018-08-31T03:37:58.723Z,101717.75
2018-08-31T03:38:20.492Z,101717.72
2018-08-31T03:38:42.248Z,101715.05
2018-08-31T03:39:04.584Z,101714.67
2018-08-31T03:39:26.355Z,101719.34
2018-08-31T03:39:48.120Z,101720.33
2018-08-31T03:40:09.894Z,101718.81
2018-08-31T03:40:31.655Z,101715.21
2018-08-31T03:40:53.404Z,101716.30
2018-08-31T03:41:15.208Z,101715.59
2018-08-31T03:41:36.972Z,101719.73
2018-08-31T03:41:59.088Z,101718.97
2018-08-31T03:42:20.839Z,101721.20
2018-08-31T03:42:42.686Z,101714.98
2018-08-31T03:43:04.446Z,101717.22
2018-08-31T03:43:26.211Z,101714.98
2018-08-31T03:43:47.966Z,101720.98
2018-08-31T03:44:09.731Z,101717.98
2018-08-31T03:44:31.482Z,101719.45
2018-08-31T03:44:53.228Z,101718.66
2018-08-31T03:45:14.987Z,101714.92
2018-08-31T03:45:36.756Z,101715.21
2018-08-31T03:45:58.518Z,101724.35
2018-08-31T03:46:20.293Z,101723.97
2018-08-31T03:46:42.082Z,101718.36
2018-08-31T03:47:03.834Z,101723.81
2018-08-31T03:47:25.600Z,101718.59
2018-08-31T03:47:47.565Z,101721.96
2018-08-31T03:48:09.340Z,101724.63
2018-08-31T03:48:31.094Z,101726.32
2018-08-31T03:48:52.834Z,101719.95
2018-08-31T03:49:14.667Z,101717.72
2018-08-31T03:49:36.432Z,101723.48
2018-08-31T03:49:58.222Z,101725.72
2018-08-31T03:50:19.990Z,101725.72
2018-08-31T03:50:41.755Z,101723.65
2018-08-31T03:51:03.521Z,101724.41
2018-08-31T03:51:25.332Z,101728.17
2018-08-31T03:51:47.091Z,101735.45
2018-08-31T03:52:08.876Z,101729.12
2018-08-31T03:52:30.652Z,101724.82
2018-08-31T03:52:52.409Z,101724.09
2018-08-31T03:53:14.173Z,101727.63
2018-08-31T03:53:35.948Z,101727.05
2018-08-31T03:53:57.720Z,101728.33
2018-08-31T03:54:19.482Z,101722.72
2018-08-31T03:54:41.255Z,101727.34
2018-08-31T03:55:03.028Z,101726.58
2018-08-31T03:55:24.805Z,101729.95
2018-08-31T03:55:46.569Z,101723.20
2018-08-31T03:56:08.388Z,101725.27
2018-08-31T03:56:30.182Z,101732.25
2018-08-31T03:56:51.947Z,101729.63
2018-08-31T03:57:13.734Z,101730.94
2018-08-31T03:57:35.501Z,101730.88
2018-08-31T03:57:57.263Z,101727.89
2018-08-31T03:58:19.026Z,101724.13
2018-08-31T03:58:40.807Z,101730.59
2018-08-31T03:59:02.566Z,101728.37
2018-08-31T03:59:24.328Z,101728.97
2018-08-31T03:59:46.130Z,101727.28
2018-08-31T04:00:07.894Z,101725.75
2018-08-31T04:00:29.665Z,101729.29
2018-08-31T04:00:51.440Z,101729.35
2018-08-31T04:01:13.210Z,101730.66
2018-08-31T04:01:35.002Z,101726.36
2018-08-31T04:01:56.776Z,101725.22
2018-08-31T04:02:18.554Z,101727.98
2018-08-31T04:02:40.316Z,101725.95
2018-08-31T04:03:02.063Z,101722.77
2018-08-31T04:03:23.840Z,101725.22
2018-08-31T04:03:45.600Z,101727.28
2018-08-31T04:04:07.359Z,101729.52
2018-08-31T04:04:29.124Z,101726.20
2018-08-31T04:04:52.901Z,101725.44
2018-08-31T04:05:14.669Z,101732.50
2018-08-31T04:05:36.442Z,101730.25
2018-08-31T04:05:58.202Z,101726.67
2018-08-31T04:06:19.971Z,101727.50
2018-08-31T04:06:41.754Z,101726.58
2018-08-31T04:07:03.533Z,101728.65
2018-08-31T04:07:25.290Z,101724.13
2018-08-31T04:07:47.044Z,101724.29
2018-08-31T04:08:08.846Z,101725.02
2018-08-31T04:08:30.595Z,101722.19
2018-08-31T04:08:52.349Z,101728.88
2018-08-31T04:09:14.162Z,101724.58